Best Free Video API Site

AVDBAPI.COM

Search the catalog, inspect records, and copy clean API URLs from one fast dashboard.

Telegram Join Our Telegram Community for Updates!
Today
0
Updates Today
Censored
314089
Censored Videos
Total
474268
Total Videos

Video List

Latest records ordered by update time.

ID Name CODE Category Updated API
264301 FC2-PPV-4499303 Shoujibisutatsu/Outside! Limited to 3 days! ③ Ejaculation and the appearance of the beautiful light, but... the cute smile melts and ejaculates in the beak, and the second student's ejaculation ends in the second birth! ③ FC2-PPV-4499303 Uncensored 2025-08-29 02:08:30 API
264300 050621-01 Miss Deriheru of Ramcos 050621-01 Uncensored 2025-08-29 02:08:20 API
264299 PMC453 Cocky guy plays stepsister's irresistible temptation of big tits PMC453 Chinese AV 2025-08-29 02:08:10 API
264298 011022-001 Nasty female who looks good in kimono Tomoka Nanase 011022-001 Uncensored 2025-08-29 02:08:00 API
264297 081020_001 Playful no bra wife in the neighborhood who puts out garbage in the morning Miku Aoyama 081020_001 Uncensored 2025-08-29 02:07:50 API
264296 101216-005 Model Collection Yuki Tsuji 101216-005 Uncensored 2025-08-29 02:07:40 API
264295 H0930-KI220224 Saya Kusakari Age 33 H0930-KI220224 Uncensored 2025-08-29 02:07:30 API
264294 HEYZO-2680 Yoshiko Udaka [Iko Udakake] Dirty masochistic amateur girls! HEYZO-2680 Uncensored 2025-08-29 02:07:20 API
264293 FSOG108 The Afternoon Sex Life of a Beautiful Girl FSOG108 Chinese AV 2025-08-29 02:07:10 API
264292 C0930-KI210904 Pee feature 20 years old C0930-KI210904 Uncensored 2025-08-29 02:07:00 API
264291 H4610-KI220607 Kumi Narita 23 years old H4610-KI220607 Uncensored 2025-08-29 02:06:50 API
264290 050721-01 Treasured pussy selection-please see Riko's pussy- 050721-01 Uncensored 2025-08-29 02:06:40 API
264289 011121-419 Selected mature women in 2020! 3 hours DX second volume 011121-419 Uncensored 2025-08-29 02:06:30 API
264288 SR016 New graduate recruitment record No.016 Erina [Personal shooting] SR016 Uncensored 2025-08-29 02:06:20 API
264287 H0930-TK0053 Midori Motoai 29 years old H0930-TK0053 Uncensored 2025-08-29 02:06:10 API
264286 081120_001 Insert two holes at the same time into a maid that creates a unique sex appeal! 081120_001 Uncensored 2025-08-29 02:06:00 API
264285 011422-001 The wealthy father's hobby ~ Yarimantenisa JD, please compete to see which one is erotic ~ Nana Nanaumi Asaka Sera 011422-001 Uncensored 2025-08-29 02:05:50 API
264284 C0930-KI210907 Kiyomi Nonaka 24 years old C0930-KI210907 Uncensored 2025-08-29 02:05:40 API
264283 CARIBBEANCOMPR-101416_005 Laforet Girl Vol.75 Too Serious And Too Erotic Rich Creampie Sex CARIBBEANCOMPR-101416_005 Uncensored 2025-08-29 02:05:30 API
264282 PME090 Desperately wants the delivery guy to fuck her young woman's horny PME090 Chinese AV 2025-08-29 02:05:20 API
264281 HEYZO-2681 Miki Hoshino [Miki Hoshino] Immorality of a Female Teacher-A Nasty Teacher Who Seduces Students With No Underwear- HEYZO-2681 Uncensored 2025-08-29 02:05:10 API
264280 050821-01 How this girl works-The size of the pussy changes when you get excited- 050821-01 Uncensored 2025-08-29 02:05:00 API
264279 H-220607 Kumi Narita H-220607 Uncensored 2025-08-29 02:04:50 API
264278 FC2-PPV-4500958 Sensitive and addictive Princess Shirayuki, white-clothed store clerk♪ Reijin's astonishment is the meat and intense sexual desire, every time she adds 4 pieces of stubborn skin! 25 Year Old Office Lady Aki-chan Chapter 1 [Overseas FC2-PPV-4500958 Uncensored 2025-08-29 02:04:40 API
264277 CUS-1810 Listening to Sao Mai's fucking, it's so cool to fly CUS-1810 Chinese AV 2025-08-29 02:04:30 API
264276 081220_001 Naughty treatment of a cosplay business trip massage lady 081220_001 Uncensored 2025-08-29 02:04:20 API
264275 H0930-KI220226 Pee Feature 20 Years Old H0930-KI220226 Uncensored 2025-08-29 02:04:10 API
264274 050921-01 Treasured pussy selection-please see the pussy of the performance- 050921-01 Uncensored 2025-08-29 02:04:00 API
264273 011622-001 Sophisticated adult healing pavilion ~ Please enjoy the easy-to-feel whip whip young body ~ Ayase Dewashi 011622-001 Uncensored 2025-08-29 02:03:50 API
264272 C0930-KI210909 Masako Fukuda 32 years old C0930-KI210909 Uncensored 2025-08-29 02:03:40 API
264271 HEYZO-2682 Yuuna Himekawa [Yuna Himekawa] Yuuna Himekawa is toyed! HEYZO-2682 Uncensored 2025-08-29 02:03:30 API
264270 H4610-KI220609 Hiroko Tohno Age 26 H4610-KI220609 Uncensored 2025-08-29 02:03:20 API
264269 PMC454 In order to make up for the loss caused to the company, he sacrificed his wife PMC454 Chinese AV 2025-08-29 02:03:10 API
264268 H0930-KI220227 Minori Sakata 28 years old H0930-KI220227 Uncensored 2025-08-29 02:03:00 API
264267 101416-002 Personally call that play who became friends at the home party! 101416-002 Uncensored 2025-08-29 02:02:50 API
264266 051021-01 I'll cure your impotence 051021-01 Uncensored 2025-08-29 02:02:40 API
264264 081320_001 Chinguri Return Anal Playing Blow Job Special 11-We! Girls whose suction power is not odd! !! ~ 081320_001 Uncensored 2025-08-29 02:02:20 API
264263 011221-420 Married Nadeshiko Training-A playful wife who wants to satisfy her lust- 011221-420 Uncensored 2025-08-29 02:02:10 API
264262 FC2-PPV-4498768 Zero Encounter “Feeling of Failure” Beautiful Roshi, hinako-sensei 29 years old FC2-PPV-4498768 Uncensored 2025-08-29 02:02:00 API
264261 RED-089-B Red Hot Fetish Collection Vol.73: Yu Hinouchi RED-089-B Uncensored 2025-08-29 02:01:50 API
264260 CP011 slut jailbreaker's desire CP011 Chinese AV 2025-08-29 02:01:40 API
264259 011722-001 Karimi Bianzu ~ Tachi and Cat Enjoying Rich Belochu ~ Miyu Morita Honoka Orihara 011722-001 Uncensored 2025-08-29 02:01:30 API
264258 H-220609 Hiroko Tohno H-220609 Uncensored 2025-08-29 02:01:20 API
264257 C0930-KI210912 Midori Inamura 32 years old C0930-KI210912 Uncensored 2025-08-29 02:01:10 API
264256 H-220227 Mari Sakata 28 years old H-220227 Uncensored 2025-08-29 02:01:00 API
264255 HEYZO-2683 Shiori Yamagishi [Shiori Yamagishi] Play with a slender beauty in 4P! Vol.2 HEYZO-2683 Uncensored 2025-08-29 02:00:50 API
264254 101416-003 De M wife dressed in erotic underwear 101416-003 Uncensored 2025-08-29 02:00:40 API
264253 MFK0011 secret - wife man MFK0011 Chinese AV 2025-08-29 02:00:30 API
264252 051121-01 Swimsuit with the best flesh 051121-01 Uncensored 2025-08-29 02:00:20 API
264251 011922-001 THE Unreleased ~ Amazing Titty Fuck Of Sensitive Masochist Milk 8 ~ Hina Hotaka White Qi Riri Ueyama Nana Saori Miyazawa 011922-001 Uncensored 2025-08-29 02:00:10 API